Portada
METAR-TAF:

METAR-TAF

Aeroports :

Mahiliou, Bielorússia

latitud: 53-57-18N, longitud: 030-05-42E, altitud: 194 m

Observació

L'informe es va fer fa 8 hores i 8 minuts, a les 13:00 UTC
Vent 2 kt del Sud
Temperatura -1°C
Humitat 80%
Pressió 1030 hPa
Visibilitat: 9000 m
Cel ennuvolat a una alçada de 1000 ft

METAR: UMOO 011300Z 18001MPS 9000 BKN010 M01/M04 Q1030 R13/750143 NOSIG

Hora: 00:08 (21:08 UTC)

Pronòstic

L'informe es va fer fa 10 hores i 5 minuts, a les 11:03 UTC
Pronòstic vàlid del 01 a les 12 UTC al 01 a les 21 UTC
Vent 4 kt amb direcció variable
Visibilitat: 6000 m
Cel ennuvolat a una alçada de 1000 ft
Temporalment
l' 01 a les 12 UTC al 01 a les 18 UTC
Vent 8 kt del Sud
Cel ennuvolat a una alçada de 700 ft
Temporalment
l' 01 a les 18 UTC al 01 a les 21 UTC
Visibilitat: 1000 m
Cel cobert a una alçada de 300 ft
boirina

TAF: UMOO 011103Z 0112/0121 VRB02MPS 6000 BKN010 TEMPO 0112/0118 18004MPS BKN007 TEMPO 0118/0121 1000 BR OVC003

Observacions i pronòstics meteorològics de més de 4000 aeroports (METAR i TAF).

Les estacions disponibles són els punts grocs i vermells al mapa.

Posi el ratolí al punt desitjat per veure el nom de l'estació.

Feu clic per veure les observacions i els pronòstics meteorològics.

Per canviar el mapa: feu clic els botons verds amb una creu de color negre per apropar; al botó verd amb un guió per allunyar la imatge; o en les fletxes verdes per a mapes adjacents.


METAR-TAF: